EmailTwitter


Observations de surface / Québec / LFBD

Régions: Québec | Canada | États-Unis | Europe | France | UK | Elsewhere
Station
Affichage
Infos & localisation pour LFBD | Aide pour décoder les METARs

Observations prises le 2017-05-24 à 05H30 UTC à BORDEAUX/MERIGNA, FR (LFBD)

Température: 14.0 Celsius

Point de rosée: 13.0 Celsius

Humidité relative: 94%

Vents: Nord-est à 7 km/h ou 4 noeuds.

Pression au niveau moyen de la mer: 102.30 kilopascals.

Observation METAR:

LFBD 240530Z AUTO 04004KT 360V070 CAVOK 14/13 Q1023 NOSIG=